createdAt,value
2019-04-10T00:01:17.358Z,20.70
2019-04-10T00:03:31.557Z,20.70
2019-04-10T00:05:28.925Z,20.70
2019-04-10T00:07:34.876Z,20.70
2019-04-10T00:09:39.621Z,20.70
2019-04-10T00:11:45.128Z,20.70
2019-04-10T00:13:50.839Z,20.60
2019-04-10T00:15:57.001Z,20.70
2019-04-10T00:18:02.025Z,20.60
2019-04-10T00:20:08.504Z,20.60
2019-04-10T00:22:13.886Z,20.60
2019-04-10T00:24:19.782Z,20.60
2019-04-10T00:26:25.841Z,20.60
2019-04-10T00:28:31.754Z,20.60
2019-04-10T00:30:37.561Z,20.60
2019-04-10T00:32:43.852Z,20.60
2019-04-10T00:34:49.719Z,20.60
2019-04-10T00:36:54.542Z,20.60
2019-04-10T00:38:59.476Z,20.60
2019-04-10T00:41:04.353Z,20.50
2019-04-10T00:43:09.090Z,20.50
2019-04-10T00:45:15.676Z,20.50
2019-04-10T00:47:21.211Z,20.50
2019-04-10T00:49:27.154Z,20.50
2019-04-10T00:51:31.948Z,20.50
2019-04-10T00:53:37.138Z,20.50
2019-04-10T00:55:42.014Z,20.50
2019-04-10T00:57:47.715Z,20.50
2019-04-10T00:59:52.605Z,20.50
2019-04-10T01:01:58.288Z,20.50
2019-04-10T01:04:04.320Z,20.50
2019-04-10T01:06:09.206Z,20.50
2019-04-10T01:08:16.096Z,20.50
2019-04-10T01:10:21.979Z,20.50
2019-04-10T01:12:27.761Z,20.40
2019-04-10T01:14:33.837Z,20.40
2019-04-10T01:16:39.678Z,20.40
2019-04-10T01:18:45.612Z,20.40
2019-04-10T01:20:51.416Z,20.40
2019-04-10T01:22:57.261Z,20.40
2019-04-10T01:25:02.272Z,20.40
2019-04-10T01:27:08.065Z,20.40
2019-04-10T01:29:13.440Z,20.40
2019-04-10T01:31:19.838Z,20.40
2019-04-10T01:33:24.992Z,20.40
2019-04-10T01:35:30.017Z,20.40
2019-04-10T01:37:46.914Z,20.30
2019-04-10T01:39:42.274Z,20.40
2019-04-10T01:41:48.054Z,20.30
2019-04-10T01:43:55.230Z,20.30
2019-04-10T01:46:00.130Z,20.30
2019-04-10T01:48:05.957Z,20.30
2019-04-10T01:50:12.955Z,20.30
2019-04-10T01:52:17.794Z,20.30
2019-04-10T01:54:22.776Z,20.30
2019-04-10T01:56:31.874Z,20.40
2019-04-10T01:58:34.920Z,20.40
2019-04-10T02:00:42.114Z,20.40
2019-04-10T02:02:49.615Z,20.40
2019-04-10T02:04:55.229Z,20.50
2019-04-10T02:07:00.566Z,20.50
2019-04-10T02:09:08.937Z,20.50
2019-04-10T02:11:13.815Z,20.50
2019-04-10T02:13:19.154Z,20.60
2019-04-10T02:15:24.126Z,20.60
2019-04-10T02:17:30.762Z,20.60
2019-04-10T02:19:36.458Z,20.60
2019-04-10T02:21:42.144Z,20.70
2019-04-10T02:23:47.017Z,20.70
2019-04-10T02:25:52.786Z,20.70
2019-04-10T02:27:58.541Z,20.70
2019-04-10T02:30:05.119Z,20.70
2019-04-10T02:32:10.353Z,20.70
2019-04-10T02:34:17.205Z,20.70
2019-04-10T02:36:23.529Z,20.70
2019-04-10T02:38:44.583Z,20.70
2019-04-10T02:40:34.979Z,20.80
2019-04-10T02:42:41.082Z,20.70
2019-04-10T02:44:46.032Z,20.80
2019-04-10T02:46:51.889Z,20.70
2019-04-10T02:48:58.144Z,20.70
2019-04-10T02:51:02.915Z,20.70
2019-04-10T02:53:08.011Z,20.70
2019-04-10T02:55:14.335Z,20.70
2019-04-10T02:57:19.535Z,20.70
2019-04-10T02:59:27.021Z,20.70
2019-04-10T03:01:33.563Z,20.70
2019-04-10T03:03:38.553Z,20.70
2019-04-10T03:05:44.750Z,20.70
2019-04-10T03:07:50.210Z,20.70
2019-04-10T03:10:06.054Z,20.70
2019-04-10T03:12:03.735Z,20.70
2019-04-10T03:14:10.612Z,20.60
2019-04-10T03:16:15.944Z,20.70
2019-04-10T03:18:21.006Z,20.70
2019-04-10T03:20:26.615Z,20.70
2019-04-10T03:22:32.466Z,20.70
2019-04-10T03:24:38.148Z,20.70
2019-04-10T03:26:43.216Z,20.70
2019-04-10T03:28:48.018Z,20.70
2019-04-10T03:30:53.851Z,20.80
2019-04-10T03:33:23.871Z,20.80
2019-04-10T03:35:32.925Z,20.80
2019-04-10T03:37:37.841Z,20.90
2019-04-10T03:39:42.861Z,20.90
2019-04-10T03:41:48.480Z,20.90
2019-04-10T03:43:54.262Z,20.90
2019-04-10T03:45:59.268Z,20.90
2019-04-10T03:48:04.910Z,20.90
2019-04-10T03:50:10.808Z,21.00
2019-04-10T03:52:16.872Z,21.00
2019-04-10T03:54:22.898Z,21.00
2019-04-10T03:56:29.723Z,21.10
2019-04-10T03:58:35.585Z,21.10
2019-04-10T04:00:40.678Z,21.10
2019-04-10T04:02:46.401Z,21.10
2019-04-10T04:04:51.253Z,21.10
2019-04-10T04:06:56.149Z,21.10
2019-04-10T04:09:07.395Z,21.10
2019-04-10T04:11:09.199Z,21.20
2019-04-10T04:13:15.247Z,21.20
2019-04-10T04:15:20.351Z,21.20
2019-04-10T04:17:26.068Z,21.20
2019-04-10T04:19:31.101Z,21.20
2019-04-10T04:21:36.263Z,21.20
2019-04-10T04:23:41.140Z,21.30
2019-04-10T04:25:46.224Z,21.30
2019-04-10T04:27:51.762Z,21.30
2019-04-10T04:29:57.444Z,21.30
2019-04-10T04:32:02.331Z,21.30
2019-04-10T04:34:07.268Z,21.30
2019-04-10T04:36:12.334Z,21.30
2019-04-10T04:38:17.824Z,21.30
2019-04-10T04:40:23.811Z,21.30
2019-04-10T04:42:28.758Z,21.40
2019-04-10T04:44:33.561Z,21.40
2019-04-10T04:46:38.673Z,21.40
2019-04-10T04:48:43.552Z,21.40
2019-04-10T04:50:50.013Z,21.40
2019-04-10T04:52:56.047Z,21.40
2019-04-10T04:55:02.068Z,21.40
2019-04-10T04:57:06.793Z,21.40
2019-04-10T04:59:12.151Z,21.50
2019-04-10T05:01:17.061Z,21.50
2019-04-10T05:03:22.823Z,21.50
2019-04-10T05:05:27.705Z,21.50
2019-04-10T05:07:33.330Z,21.50
2019-04-10T05:09:39.593Z,21.50
2019-04-10T05:11:44.991Z,21.50
2019-04-10T05:13:50.902Z,21.50
2019-04-10T05:15:55.827Z,21.60
2019-04-10T05:18:00.653Z,21.60
2019-04-10T05:20:05.745Z,21.60
2019-04-10T05:22:10.895Z,21.60
2019-04-10T05:24:15.839Z,21.60
2019-04-10T05:26:22.774Z,21.60
2019-04-10T05:28:29.493Z,21.60
2019-04-10T05:30:34.152Z,21.60
2019-04-10T05:32:39.699Z,21.60
2019-04-10T05:34:44.781Z,21.60
2019-04-10T05:36:49.553Z,21.70
2019-04-10T05:38:54.467Z,21.70
2019-04-10T05:40:59.414Z,21.70
2019-04-10T05:43:04.221Z,21.70
2019-04-10T05:45:09.269Z,21.70
2019-04-10T05:47:14.142Z,21.80
2019-04-10T05:49:19.082Z,21.80
2019-04-10T05:51:23.894Z,21.80
2019-04-10T05:53:29.787Z,21.80
2019-04-10T05:55:34.708Z,21.80
2019-04-10T05:57:40.571Z,21.90
2019-04-10T05:59:45.925Z,21.90
2019-04-10T06:01:50.838Z,21.90
2019-04-10T06:03:56.574Z,21.90
2019-04-10T06:06:01.654Z,22.00
2019-04-10T06:08:07.696Z,22.00
2019-04-10T06:10:13.322Z,22.00
2019-04-10T06:12:18.285Z,22.00
2019-04-10T06:14:24.164Z,22.00
2019-04-10T06:16:30.316Z,22.10
2019-04-10T06:18:37.568Z,22.10
2019-04-10T06:20:42.483Z,22.10
2019-04-10T06:22:47.424Z,22.10
2019-04-10T06:24:52.293Z,22.10
2019-04-10T06:26:57.045Z,22.10
2019-04-10T06:29:02.411Z,22.10
2019-04-10T06:31:08.318Z,22.20
2019-04-10T06:33:13.267Z,22.20
2019-04-10T06:35:17.986Z,22.20
2019-04-10T06:37:24.078Z,22.20
2019-04-10T06:39:29.016Z,22.20
2019-04-10T06:41:34.806Z,22.20
2019-04-10T06:43:39.976Z,22.20
2019-04-10T06:45:44.824Z,22.20
2019-04-10T06:47:50.722Z,22.20
2019-04-10T06:49:56.967Z,22.20
2019-04-10T06:52:01.982Z,22.20
2019-04-10T06:54:11.055Z,22.20
2019-04-10T06:56:13.754Z,22.20
2019-04-10T06:58:20.169Z,22.20
2019-04-10T07:00:25.165Z,22.20
2019-04-10T07:02:31.584Z,22.20
2019-04-10T07:04:45.768Z,22.20
2019-04-10T07:06:52.867Z,22.20
2019-04-10T07:08:53.234Z,22.20
2019-04-10T07:11:02.564Z,22.20
2019-04-10T07:13:07.057Z,22.10
2019-04-10T07:15:10.665Z,22.10
2019-04-10T07:17:16.003Z,22.10
2019-04-10T07:19:20.985Z,22.10
2019-04-10T07:21:27.979Z,22.10
2019-04-10T07:23:33.501Z,22.10
2019-04-10T07:25:40.328Z,22.10
2019-04-10T07:27:45.887Z,22.10
2019-04-10T07:29:53.869Z,22.10
2019-04-10T07:31:57.342Z,22.10
2019-04-10T07:34:03.381Z,22.10
2019-04-10T07:36:12.179Z,22.10
2019-04-10T07:38:15.973Z,22.10
2019-04-10T07:40:20.914Z,22.10
2019-04-10T07:42:32.350Z,22.10
2019-04-10T07:44:32.370Z,22.10
2019-04-10T07:46:38.151Z,22.10
2019-04-10T07:48:43.561Z,22.10
2019-04-10T07:50:48.573Z,22.10
2019-04-10T07:52:54.191Z,22.10
2019-04-10T07:54:59.116Z,22.10
2019-04-10T07:57:04.304Z,22.10
2019-04-10T07:59:10.883Z,22.10
2019-04-10T08:01:16.162Z,22.10
2019-04-10T08:03:21.099Z,22.10
2019-04-10T08:05:26.906Z,22.10
2019-04-10T08:07:35.697Z,22.10
2019-04-10T08:09:39.872Z,22.10
2019-04-10T08:11:46.862Z,22.10
2019-04-10T08:13:51.865Z,22.10
2019-04-10T08:15:56.781Z,22.10
2019-04-10T08:18:02.599Z,22.10
2019-04-10T08:20:07.892Z,22.10
2019-04-10T08:22:13.012Z,22.10
2019-04-10T08:24:18.139Z,22.10
2019-04-10T08:26:23.104Z,22.10
2019-04-10T08:28:30.439Z,22.10
2019-04-10T08:30:34.418Z,22.10
2019-04-10T08:32:50.877Z,22.10
2019-04-10T08:34:46.439Z,22.10
2019-04-10T08:36:53.790Z,22.10
2019-04-10T08:38:58.896Z,22.10
2019-04-10T08:41:05.141Z,22.10
2019-04-10T08:43:09.997Z,22.10
2019-04-10T08:45:14.839Z,22.10
2019-04-10T08:47:19.893Z,22.10
2019-04-10T08:49:24.880Z,22.10
2019-04-10T08:51:29.769Z,22.10
2019-04-10T08:53:36.205Z,22.10
2019-04-10T08:55:42.345Z,22.20
2019-04-10T08:57:47.154Z,22.20
2019-04-10T08:59:52.116Z,22.20
2019-04-10T09:01:57.794Z,22.20
2019-04-10T09:04:03.598Z,22.20
2019-04-10T09:06:09.273Z,22.20
2019-04-10T09:08:14.980Z,22.20
2019-04-10T09:10:20.567Z,22.20
2019-04-10T09:12:26.074Z,22.20
2019-04-10T09:14:31.163Z,22.20
2019-04-10T09:16:36.431Z,22.20
2019-04-10T09:18:41.269Z,22.20
2019-04-10T09:20:46.925Z,22.20
2019-04-10T09:23:14.452Z,22.20
2019-04-10T09:24:58.513Z,22.20
2019-04-10T09:27:04.687Z,22.20
2019-04-10T09:29:09.795Z,22.20
2019-04-10T09:31:15.669Z,22.20
2019-04-10T09:33:25.050Z,22.20
2019-04-10T09:35:27.193Z,22.20
2019-04-10T09:37:32.573Z,22.20
2019-04-10T09:39:37.394Z,22.20
2019-04-10T09:41:42.232Z,22.20
2019-04-10T09:43:47.709Z,22.20
2019-04-10T09:45:53.574Z,22.20
2019-04-10T09:47:58.516Z,22.20
2019-04-10T09:50:03.264Z,22.30
2019-04-10T09:52:08.313Z,22.30
2019-04-10T09:54:13.397Z,22.30
2019-04-10T09:56:19.218Z,22.30
2019-04-10T09:58:24.115Z,22.30
2019-04-10T10:00:29.928Z,22.30
2019-04-10T10:02:35.770Z,22.30
2019-04-10T10:04:41.876Z,22.30
2019-04-10T10:06:47.333Z,22.30
2019-04-10T10:08:52.401Z,22.30
2019-04-10T10:10:57.651Z,22.30
2019-04-10T10:13:03.306Z,22.30
2019-04-10T10:15:09.506Z,22.30
2019-04-10T10:17:16.902Z,22.30
2019-04-10T10:19:21.879Z,22.40
2019-04-10T10:21:26.842Z,22.30
2019-04-10T10:23:31.799Z,22.40
2019-04-10T10:25:37.463Z,22.40
2019-04-10T10:27:43.339Z,22.40
2019-04-10T10:29:48.169Z,22.40
2019-04-10T10:31:53.739Z,22.40
2019-04-10T10:33:59.672Z,22.40
2019-04-10T10:36:05.356Z,22.40
2019-04-10T10:38:10.862Z,22.40
2019-04-10T10:40:15.648Z,22.40
2019-04-10T10:42:21.305Z,22.40
2019-04-10T10:44:26.342Z,22.50
2019-04-10T10:46:31.451Z,22.40
2019-04-10T10:48:38.214Z,22.40
2019-04-10T10:50:43.587Z,22.50
2019-04-10T10:52:48.501Z,22.50
2019-04-10T10:55:07.492Z,22.50
2019-04-10T10:57:13.186Z,22.50
2019-04-10T10:59:18.060Z,22.50
2019-04-10T11:01:24.060Z,22.50
2019-04-10T11:03:29.952Z,22.50
2019-04-10T11:05:35.577Z,22.60
2019-04-10T11:07:40.585Z,22.60
2019-04-10T11:09:46.402Z,22.60
2019-04-10T11:11:51.481Z,22.60
2019-04-10T11:13:57.268Z,22.60
2019-04-10T11:16:09.084Z,22.60
2019-04-10T11:18:15.909Z,22.60
2019-04-10T11:20:20.794Z,22.70
2019-04-10T11:22:26.427Z,22.70
2019-04-10T11:24:31.623Z,22.70
2019-04-10T11:26:36.376Z,22.70
2019-04-10T11:28:41.887Z,22.70
2019-04-10T11:30:49.087Z,22.70
2019-04-10T11:32:54.950Z,22.80
2019-04-10T11:34:59.922Z,22.80
2019-04-10T11:37:19.300Z,22.80
2019-04-10T11:39:19.285Z,22.80
2019-04-10T11:41:19.365Z,22.80
2019-04-10T11:43:30.253Z,22.80
2019-04-10T11:45:43.126Z,22.80
2019-04-10T11:47:42.570Z,22.90
2019-04-10T11:49:49.562Z,22.90
2019-04-10T11:51:56.720Z,22.90
2019-04-10T11:54:04.501Z,22.90
2019-04-10T11:56:10.732Z,22.90
2019-04-10T11:58:17.663Z,22.90
2019-04-10T12:02:52.780Z,22.90
2019-04-10T12:05:03.473Z,23.00
2019-04-10T12:07:05.979Z,23.00
2019-04-10T12:10:16.939Z,23.00
2019-04-10T12:11:25.892Z,23.00
2019-04-10T12:13:32.449Z,23.00
2019-04-10T12:15:38.457Z,23.00
2019-04-10T12:17:45.104Z,23.00
2019-04-10T12:19:50.137Z,23.10
2019-04-10T12:21:56.019Z,23.10
2019-04-10T12:24:01.185Z,23.10
2019-04-10T12:26:06.226Z,23.10
2019-04-10T12:28:11.701Z,23.10
2019-04-10T12:30:17.403Z,23.10
2019-04-10T12:32:24.947Z,23.10
2019-04-10T12:34:34.016Z,23.10
2019-04-10T12:36:38.973Z,23.10
2019-04-10T12:38:43.863Z,23.20
2019-04-10T12:40:50.864Z,23.20
2019-04-10T12:42:56.663Z,23.20
2019-04-10T12:45:01.989Z,23.20
2019-04-10T12:47:07.893Z,23.20
2019-04-10T12:49:12.953Z,23.20
2019-04-10T12:51:17.731Z,23.20
2019-04-10T12:53:23.294Z,23.30
2019-04-10T12:55:28.527Z,23.30
2019-04-10T12:57:35.393Z,23.30
2019-04-10T12:59:40.234Z,23.30
2019-04-10T13:01:45.105Z,23.30
2019-04-10T13:03:50.043Z,23.30
2019-04-10T13:05:55.640Z,23.30
2019-04-10T13:08:12.878Z,23.30
2019-04-10T13:10:08.702Z,23.40
2019-04-10T13:12:13.684Z,23.40
2019-04-10T13:14:18.824Z,23.40
2019-04-10T13:16:23.872Z,23.40
2019-04-10T13:18:28.667Z,23.40
2019-04-10T13:20:33.727Z,23.40
2019-04-10T13:22:38.705Z,23.40
2019-04-10T13:24:43.855Z,23.40
2019-04-10T13:26:50.202Z,23.40
2019-04-10T13:28:56.075Z,23.40
2019-04-10T13:31:01.965Z,23.40
2019-04-10T13:33:07.413Z,23.50
2019-04-10T13:35:13.575Z,23.50
2019-04-10T13:37:18.475Z,23.50
2019-04-10T13:39:24.619Z,23.50
2019-04-10T13:41:32.350Z,23.50
2019-04-10T13:43:38.828Z,23.50
2019-04-10T13:45:43.902Z,23.50
2019-04-10T13:47:49.674Z,23.50
2019-04-10T13:49:54.715Z,23.50
2019-04-10T13:51:59.624Z,23.50
2019-04-10T13:54:04.510Z,23.50
2019-04-10T13:56:09.296Z,23.40
2019-04-10T13:58:15.053Z,23.40
2019-04-10T14:00:40.555Z,23.40
2019-04-10T14:02:47.850Z,23.40
2019-04-10T14:04:53.454Z,23.40
2019-04-10T14:06:58.249Z,23.40
2019-04-10T14:09:22.517Z,23.40
2019-04-10T14:11:13.078Z,23.40
2019-04-10T14:13:18.055Z,23.40
2019-04-10T14:15:22.868Z,23.40
2019-04-10T14:17:27.792Z,23.40
2019-04-10T14:19:33.879Z,23.40
2019-04-10T14:21:39.059Z,23.40
2019-04-10T14:23:45.149Z,23.40
2019-04-10T14:26:09.180Z,23.40
2019-04-10T14:28:14.191Z,23.40
2019-04-10T14:30:35.539Z,23.40
2019-04-10T14:32:41.522Z,23.40
2019-04-10T14:34:47.068Z,23.30
2019-04-10T14:36:52.732Z,23.30
2019-04-10T14:39:08.268Z,23.30
2019-04-10T14:41:09.455Z,23.30
2019-04-10T14:43:14.690Z,23.30
2019-04-10T14:45:19.535Z,23.30
2019-04-10T14:47:25.485Z,23.30
2019-04-10T14:49:31.353Z,23.30
2019-04-10T14:51:36.703Z,23.30
2019-04-10T14:53:51.870Z,23.30
2019-04-10T14:56:01.961Z,23.30
2019-04-10T14:58:20.445Z,23.30
2019-04-10T15:00:59.830Z,23.30
2019-04-10T15:03:08.474Z,23.30
2019-04-10T15:05:15.811Z,23.20
2019-04-10T15:07:26.802Z,23.20
2019-04-10T15:09:33.219Z,23.20
2019-04-10T15:11:39.074Z,23.20
2019-04-10T15:13:44.019Z,23.20
2019-04-10T15:15:50.388Z,23.20
2019-04-10T15:17:56.101Z,23.20
2019-04-10T15:20:01.434Z,23.10
2019-04-10T15:22:07.406Z,23.20
2019-04-10T15:24:13.658Z,23.10
2019-04-10T15:26:19.757Z,23.10
2019-04-10T15:28:39.543Z,23.10
2019-04-10T15:30:50.887Z,23.10
2019-04-10T15:32:56.172Z,23.10
2019-04-10T15:35:04.148Z,23.00
2019-04-10T15:37:37.408Z,23.00
2019-04-10T15:39:55.181Z,23.00
2019-04-10T15:42:03.804Z,23.00
2019-04-10T15:44:19.064Z,23.00
2019-04-10T15:46:30.000Z,23.00
2019-04-10T15:48:41.860Z,23.00
2019-04-10T15:50:54.076Z,22.90
2019-04-10T15:52:59.985Z,22.90
2019-04-10T15:55:07.776Z,22.90
2019-04-10T15:57:29.298Z,22.90
2019-04-10T15:59:40.583Z,22.90
2019-04-10T16:01:52.094Z,22.80
2019-04-10T16:03:58.924Z,22.80
2019-04-10T16:06:08.205Z,22.80
2019-04-10T16:08:18.386Z,22.80
2019-04-10T16:10:49.663Z,22.70
2019-04-10T16:13:40.852Z,22.70
2019-04-10T16:15:53.191Z,22.70
2019-04-10T16:18:07.234Z,22.70
2019-04-10T16:20:25.244Z,22.70
2019-04-10T16:22:35.198Z,22.60
2019-04-10T16:24:55.397Z,22.60
2019-04-10T16:27:12.583Z,22.60
2019-04-10T16:29:22.277Z,22.60
2019-04-10T16:31:37.614Z,22.50
2019-04-10T16:33:46.829Z,22.50
2019-04-10T16:35:54.799Z,22.50
2019-04-10T16:38:05.296Z,22.50
2019-04-10T16:40:11.772Z,22.40
2019-04-10T16:42:20.684Z,22.40
2019-04-10T16:44:26.977Z,22.40
2019-04-10T16:46:32.119Z,22.40
2019-04-10T16:48:37.056Z,22.40
2019-04-10T16:50:41.884Z,22.30
2019-04-10T16:52:51.385Z,22.30
2019-04-10T16:54:56.253Z,22.30
2019-04-10T16:57:00.994Z,22.30
2019-04-10T16:59:17.825Z,22.30
2019-04-10T17:01:24.294Z,22.30
2019-04-10T17:03:33.871Z,22.30
2019-04-10T17:05:39.668Z,22.30
2019-04-10T17:07:45.303Z,22.30
2019-04-10T17:09:51.435Z,22.30
2019-04-10T17:11:57.131Z,22.30
2019-04-10T17:14:02.940Z,22.30
2019-04-10T17:16:07.915Z,22.30
2019-04-10T17:18:12.824Z,22.20
2019-04-10T17:20:17.858Z,22.20
2019-04-10T17:22:31.166Z,22.20
2019-04-10T17:24:29.374Z,22.20
2019-04-10T17:26:35.074Z,22.10
2019-04-10T17:28:40.687Z,22.10
2019-04-10T17:30:46.367Z,22.10
2019-04-10T17:32:52.183Z,22.10
2019-04-10T17:34:57.301Z,22.00
2019-04-10T17:37:03.201Z,22.00
2019-04-10T17:39:17.784Z,22.00
2019-04-10T17:41:23.875Z,22.00
2019-04-10T17:43:29.945Z,21.90
2019-04-10T17:45:34.908Z,21.90
2019-04-10T17:47:40.870Z,21.90
2019-04-10T17:49:45.848Z,21.90
2019-04-10T17:51:50.885Z,21.90
2019-04-10T17:55:01.421Z,21.80
2019-04-10T17:57:10.725Z,21.80
2019-04-10T17:59:16.864Z,21.80
2019-04-10T18:01:23.015Z,21.80
2019-04-10T18:03:58.436Z,21.80
2019-04-10T18:06:01.719Z,21.80
2019-04-10T18:08:08.391Z,21.70
2019-04-10T18:10:14.132Z,21.80
2019-04-10T18:12:20.357Z,21.80
2019-04-10T18:14:27.061Z,21.70
2019-04-10T18:16:33.878Z,21.80
2019-04-10T18:19:17.091Z,21.80
2019-04-10T18:21:30.971Z,21.80
2019-04-10T18:23:39.756Z,21.80
2019-04-10T18:25:44.980Z,21.80
2019-04-10T18:27:52.803Z,21.80
2019-04-10T18:30:05.743Z,21.80
2019-04-10T18:32:25.413Z,21.80
2019-04-10T18:34:38.434Z,21.80
2019-04-10T18:36:50.686Z,21.80
2019-04-10T18:40:05.606Z,21.80
2019-04-10T18:42:14.299Z,21.80
2019-04-10T18:44:22.750Z,21.80
2019-04-10T18:47:16.517Z,21.80
2019-04-10T18:49:21.487Z,21.80
2019-04-10T18:51:26.388Z,21.80
2019-04-10T18:53:31.788Z,21.80
2019-04-10T18:55:36.713Z,21.80
2019-04-10T18:57:43.109Z,21.70
2019-04-10T19:00:08.051Z,21.70
2019-04-10T19:02:23.841Z,21.70
2019-04-10T19:04:50.022Z,21.70
2019-04-10T19:07:01.932Z,21.70
2019-04-10T19:09:15.783Z,21.70
2019-04-10T19:11:22.755Z,21.70
2019-04-10T19:13:22.475Z,21.60
2019-04-10T19:15:28.752Z,21.60
2019-04-10T19:17:35.031Z,21.60
2019-04-10T19:19:42.250Z,21.60
2019-04-10T19:21:48.460Z,21.60
2019-04-10T19:23:53.622Z,21.60
2019-04-10T19:25:58.929Z,21.60
2019-04-10T19:28:04.545Z,21.60
2019-04-10T19:30:29.074Z,21.60
2019-04-10T19:32:37.474Z,21.60
2019-04-10T19:34:42.608Z,21.50
2019-04-10T19:36:48.680Z,21.50
2019-04-10T19:38:54.112Z,21.50
2019-04-10T19:41:00.431Z,21.50
2019-04-10T19:43:06.052Z,21.50
2019-04-10T19:45:12.502Z,21.50
2019-04-10T19:47:17.951Z,21.50
2019-04-10T19:49:23.915Z,21.40
2019-04-10T19:51:30.078Z,21.40
2019-04-10T19:53:35.338Z,21.40
2019-04-10T19:55:40.220Z,21.40
2019-04-10T19:57:45.707Z,21.40
2019-04-10T19:59:52.316Z,21.40
2019-04-10T20:01:58.237Z,21.40
2019-04-10T20:04:03.980Z,21.40
2019-04-10T20:06:09.152Z,21.40
2019-04-10T20:08:14.071Z,21.30
2019-04-10T20:10:19.299Z,21.30
2019-04-10T20:12:24.506Z,21.30
2019-04-10T20:14:30.675Z,21.30
2019-04-10T20:16:37.194Z,21.30
2019-04-10T20:18:43.200Z,21.30
2019-04-10T20:20:51.243Z,21.30
2019-04-10T20:22:56.375Z,21.30
2019-04-10T20:25:02.221Z,21.30
2019-04-10T20:27:08.198Z,21.30
2019-04-10T20:29:13.122Z,21.20
2019-04-10T20:31:25.805Z,21.20
2019-04-10T20:33:30.675Z,21.20
2019-04-10T20:35:36.238Z,21.20
2019-04-10T20:37:41.121Z,21.20
2019-04-10T20:39:46.023Z,21.20
2019-04-10T20:41:53.736Z,21.20
2019-04-10T20:43:57.417Z,21.20
2019-04-10T20:46:03.552Z,21.10
2019-04-10T20:48:09.832Z,21.20
2019-04-10T20:50:15.426Z,21.10
2019-04-10T20:52:20.511Z,21.20
2019-04-10T20:54:25.527Z,21.10
2019-04-10T20:56:30.738Z,21.10
2019-04-10T20:58:36.230Z,21.10
2019-04-10T21:00:43.091Z,21.10
2019-04-10T21:02:49.435Z,21.10
2019-04-10T21:05:01.442Z,21.10
2019-04-10T21:07:01.165Z,21.10
2019-04-10T21:09:07.602Z,21.10
2019-04-10T21:11:13.790Z,21.00
2019-04-10T21:13:19.121Z,21.00
2019-04-10T21:15:24.087Z,21.00
2019-04-10T21:17:29.859Z,21.00
2019-04-10T21:19:35.501Z,21.00
2019-04-10T21:21:41.343Z,21.00
2019-04-10T21:23:46.537Z,21.00
2019-04-10T21:25:51.882Z,21.00
2019-04-10T21:27:57.924Z,21.00
2019-04-10T21:30:09.576Z,21.00
2019-04-10T21:32:23.945Z,20.90
2019-04-10T21:34:41.052Z,20.90
2019-04-10T21:36:46.097Z,21.00
2019-04-10T21:38:50.866Z,20.90
2019-04-10T21:40:55.762Z,20.90
2019-04-10T21:43:01.576Z,20.90
2019-04-10T21:45:07.411Z,20.90
2019-04-10T21:47:13.100Z,20.90
2019-04-10T21:49:18.105Z,20.90
2019-04-10T21:51:23.240Z,20.90
2019-04-10T21:53:28.669Z,20.90
2019-04-10T21:55:35.343Z,20.90
2019-04-10T21:57:40.529Z,20.90
2019-04-10T21:59:45.572Z,20.90
2019-04-10T22:01:50.868Z,20.90
2019-04-10T22:03:58.430Z,20.90
2019-04-10T22:06:23.992Z,20.90
2019-04-10T22:08:43.230Z,20.90
2019-04-10T22:10:48.544Z,20.90
2019-04-10T22:12:53.293Z,21.00
2019-04-10T22:15:00.263Z,21.00
2019-04-10T22:17:08.742Z,21.00
2019-04-10T22:19:14.460Z,21.00
2019-04-10T22:21:19.694Z,21.00
2019-04-10T22:23:26.515Z,21.10
2019-04-10T22:25:31.984Z,21.10
2019-04-10T22:27:36.829Z,21.10
2019-04-10T22:29:42.683Z,21.10
2019-04-10T22:31:47.693Z,21.10
2019-04-10T22:33:52.611Z,21.10
2019-04-10T22:35:58.167Z,21.10
2019-04-10T22:38:03.161Z,21.10
2019-04-10T22:40:08.621Z,21.00
2019-04-10T22:42:14.940Z,21.00
2019-04-10T22:44:19.810Z,21.00
2019-04-10T22:46:25.800Z,21.00
2019-04-10T22:48:32.893Z,21.00
2019-04-10T22:50:38.549Z,21.00
2019-04-10T22:52:44.306Z,21.00
2019-04-10T22:54:49.340Z,21.00
2019-04-10T22:56:54.450Z,21.00
2019-04-10T22:58:59.712Z,20.90
2019-04-10T23:01:06.863Z,20.90
2019-04-10T23:03:11.721Z,20.90
2019-04-10T23:05:16.786Z,21.00
2019-04-10T23:07:21.919Z,20.90
2019-04-10T23:09:26.935Z,20.90
2019-04-10T23:11:39.129Z,20.90
2019-04-10T23:13:38.340Z,20.90
2019-04-10T23:15:43.976Z,20.90
2019-04-10T23:17:49.052Z,20.90
2019-04-10T23:19:54.283Z,20.90
2019-04-10T23:21:59.158Z,20.90
2019-04-10T23:24:05.413Z,20.80
2019-04-10T23:26:11.099Z,20.80
2019-04-10T23:28:16.110Z,20.80
2019-04-10T23:30:21.526Z,20.80
2019-04-10T23:32:27.030Z,20.80
2019-04-10T23:34:33.808Z,20.80
2019-04-10T23:36:38.738Z,20.70
2019-04-10T23:38:43.818Z,20.80
2019-04-10T23:40:49.365Z,20.70
2019-04-10T23:43:06.827Z,20.70
2019-04-10T23:45:01.710Z,20.70
2019-04-10T23:47:07.536Z,20.70
2019-04-10T23:49:13.032Z,20.70
2019-04-10T23:51:18.910Z,20.70
2019-04-10T23:53:24.613Z,20.70
2019-04-10T23:55:32.603Z,20.70
2019-04-10T23:57:38.425Z,20.70
2019-04-10T23:59:44.639Z,20.70
